Time,TemperatureF,DewpointF,PressureIn,WindDirection,WindDirectionDegrees,WindSpeedMPH,WindSpeedGustMPH,Humidity,HourlyPrecipIn,Conditions,Clouds,dailyrainin,SoftwareType,DateUTC
2013-08-03 00:04:00,51.3,44.0,29.88,South,186,0.0,0.0,77,0.00,,,0.00,weatherlink.com 1.10,2013-08-03 06:04:00,
2013-08-03 00:20:00,50.6,43.0,29.88,South,186,0.0,0.0,74,0.00,,,0.00,weatherlink.com 1.10,2013-08-03 06:20:00,
2013-08-03 00:35:00,50.2,43.0,29.88,South,186,0.0,0.0,76,0.00,,,0.00,weatherlink.com 1.10,2013-08-03 06:35:00,
2013-08-03 00:50:00,49.9,43.0,29.88,South,186,0.0,0.0,78,0.00,,,0.00,weatherlink.com 1.10,2013-08-03 06:50:00,
2013-08-03 01:05:00,49.6,43.0,29.88,South,186,0.0,0.0,78,0.00,,,0.00,weatherlink.com 1.10,2013-08-03 07:05:00,
2013-08-03 01:19:00,49.9,43.0,29.88,South,186,0.0,1.0,78,0.00,,,0.00,weatherlink.com 1.10,2013-08-03 07:19:00,
2013-08-03 01:35:00,50.0,44.0,29.88,South,186,0.0,0.0,79,0.00,,,0.00,weatherlink.com 1.10,2013-08-03 07:35:00,
2013-08-03 01:49:00,49.2,43.0,29.88,South,186,0.0,0.0,78,0.00,,,0.00,weatherlink.com 1.10,2013-08-03 07:49:00,
2013-08-03 02:05:00,48.3,42.0,29.88,South,186,0.0,0.0,79,0.00,,,0.00,weatherlink.com 1.10,2013-08-03 08:05:00,
2013-08-03 02:20:00,47.5,42.0,29.87,South,186,0.0,0.0,81,0.00,,,0.00,weatherlink.com 1.10,2013-08-03 08:20:00,
2013-08-03 02:35:00,47.4,42.0,29.88,South,186,0.0,1.0,82,0.00,,,0.00,weatherlink.com 1.10,2013-08-03 08:35:00,
2013-08-03 02:50:00,47.2,42.0,29.88,South,186,0.0,0.0,83,0.00,,,0.00,weatherlink.com 1.10,2013-08-03 08:50:00,
2013-08-03 03:05:00,46.8,42.0,29.87,South,186,0.0,0.0,84,0.00,,,0.00,weatherlink.com 1.10,2013-08-03 09:05:00,
2013-08-03 03:20:00,46.2,42.0,29.87,South,186,0.0,0.0,85,0.00,,,0.00,weatherlink.com 1.10,2013-08-03 09:20:00,
2013-08-03 03:35:00,45.6,41.0,29.87,South,186,0.0,0.0,85,0.00,,,0.00,weatherlink.com 1.10,2013-08-03 09:35:00,
2013-08-03 03:50:00,45.7,42.0,29.87,South,186,0.0,0.0,85,0.00,,,0.00,weatherlink.com 1.10,2013-08-03 09:50:00,
2013-08-03 04:05:00,46.0,42.0,29.87,South,186,0.0,0.0,85,0.00,,,0.00,weatherlink.com 1.10,2013-08-03 10:05:00,
2013-08-03 04:20:00,45.9,42.0,29.88,South,186,0.0,0.0,85,0.00,,,0.00,weatherlink.com 1.10,2013-08-03 10:20:00,
2013-08-03 04:35:00,45.7,42.0,29.88,South,186,0.0,0.0,86,0.00,,,0.00,weatherlink.com 1.10,2013-08-03 10:35:00,
2013-08-03 04:50:00,45.5,42.0,29.88,South,186,0.0,0.0,87,0.00,,,0.00,weatherlink.com 1.10,2013-08-03 10:50:00,
2013-08-03 05:05:00,45.2,42.0,29.88,South,186,0.0,0.0,87,0.00,,,0.00,weatherlink.com 1.10,2013-08-03 11:05:00,
2013-08-03 05:20:00,45.0,42.0,29.89,South,186,0.0,0.0,88,0.00,,,0.00,weatherlink.com 1.10,2013-08-03 11:20:00,
2013-08-03 05:35:00,44.5,42.0,29.89,South,186,0.0,0.0,89,0.00,,,0.00,weatherlink.com 1.10,2013-08-03 11:35:00,
2013-08-03 05:50:00,44.0,41.0,29.89,South,186,0.0,0.0,90,0.00,,,0.00,weatherlink.com 1.10,2013-08-03 11:50:00,
2013-08-03 06:05:00,44.0,41.0,29.90,South,186,0.0,1.0,90,0.00,,,0.00,weatherlink.com 1.10,2013-08-03 12:05:00,
2013-08-03 06:20:00,44.3,42.0,29.90,SSW,193,0.0,1.0,90,0.00,,,0.00,weatherlink.com 1.10,2013-08-03 12:20:00,
2013-08-03 06:35:00,44.5,42.0,29.91,SSW,211,0.0,1.0,89,0.00,,,0.00,weatherlink.com 1.10,2013-08-03 12:35:00,
2013-08-03 06:50:00,44.3,42.0,29.91,SSW,211,0.0,0.0,90,0.00,,,0.00,weatherlink.com 1.10,2013-08-03 12:50:00,
2013-08-03 07:05:00,44.2,42.0,29.91,SSW,211,0.0,0.0,91,0.00,,,0.00,weatherlink.com 1.10,2013-08-03 13:05:00,
2013-08-03 07:20:00,45.1,43.0,29.91,SSW,211,0.0,0.0,92,0.00,,,0.00,weatherlink.com 1.10,2013-08-03 13:20:00,
2013-08-03 07:35:00,46.8,44.0,29.91,SSW,211,0.0,1.0,90,0.00,,,0.00,weatherlink.com 1.10,2013-08-03 13:35:00,
2013-08-03 07:50:00,48.1,45.0,29.91,SSW,211,0.0,0.0,89,0.00,,,0.00,weatherlink.com 1.10,2013-08-03 13:50:00,
2013-08-03 08:05:00,48.9,45.0,29.91,SSW,210,0.0,0.0,86,0.00,,,0.00,weatherlink.com 1.10,2013-08-03 14:05:00,
2013-08-03 08:35:00,53.1,47.0,29.91,ESE,106,1.0,2.0,80,0.00,,,0.00,weatherlink.com 1.10,2013-08-03 14:35:00,
2013-08-03 08:50:00,55.1,46.0,29.90,East,97,0.0,2.0,71,0.00,,,0.00,weatherlink.com 1.10,2013-08-03 14:50:00,
2013-08-03 09:06:00,56.8,47.0,29.90,ESE,107,0.0,2.0,69,0.00,,,0.00,weatherlink.com 1.10,2013-08-03 15:06:00,
2013-08-03 09:21:00,58.6,46.0,29.90,ESE,110,0.0,3.0,64,0.00,,,0.00,weatherlink.com 1.10,2013-08-03 15:21:00,
2013-08-03 09:36:00,60.0,48.0,29.90,ESE,115,2.0,3.0,64,0.00,,,0.00,weatherlink.com 1.10,2013-08-03 15:36:00,
2013-08-03 09:51:00,61.5,46.0,29.90,ESE,114,0.0,5.0,58,0.00,,,0.00,weatherlink.com 1.10,2013-08-03 15:51:00,
2013-08-03 10:06:00,62.6,46.0,29.89,ESE,117,2.0,7.0,56,0.00,,,0.00,weatherlink.com 1.10,2013-08-03 16:06:00,
2013-08-03 10:21:00,63.2,47.0,29.88,ESE,110,3.0,7.0,56,0.00,,,0.00,weatherlink.com 1.10,2013-08-03 16:21:00,
2013-08-03 10:36:00,64.7,48.0,29.88,ESE,105,0.0,9.0,55,0.00,,,0.00,weatherlink.com 1.10,2013-08-03 16:36:00,
2013-08-03 10:51:00,65.1,48.0,29.87,ESE,107,1.0,9.0,54,0.00,,,0.00,weatherlink.com 1.10,2013-08-03 16:51:00,
2013-08-03 11:21:00,67.6,49.0,29.86,ESE,104,1.0,9.0,51,0.00,,,0.00,weatherlink.com 1.10,2013-08-03 17:21:00,
2013-08-03 11:36:00,68.8,48.0,29.85,ESE,115,2.0,9.0,48,0.00,,,0.00,weatherlink.com 1.10,2013-08-03 17:36:00,
2013-08-03 11:51:00,69.9,50.0,29.84,ESE,105,3.0,10.0,49,0.00,,,0.00,weatherlink.com 1.10,2013-08-03 17:51:00,
2013-08-03 12:06:00,70.1,50.0,29.84,ESE,113,2.0,8.0,49,0.00,,,0.00,weatherlink.com 1.10,2013-08-03 18:06:00,
2013-08-03 12:21:00,71.4,48.0,29.82,ESE,116,0.0,8.0,44,0.00,,,0.00,weatherlink.com 1.10,2013-08-03 18:21:00,
2013-08-03 12:36:00,72.4,47.0,29.82,East,94,0.0,10.0,41,0.00,,,0.00,weatherlink.com 1.10,2013-08-03 18:36:00,
2013-08-03 12:51:00,72.0,45.0,29.81,ESE,122,4.0,11.0,38,0.00,,,0.00,weatherlink.com 1.10,2013-08-03 18:51:00,
2013-08-03 13:07:00,73.9,49.0,29.80,ESE,106,4.0,9.0,41,0.00,,,0.00,weatherlink.com 1.10,2013-08-03 19:07:00,
2013-08-03 13:22:00,71.5,44.0,29.80,ESE,106,2.0,10.0,38,0.00,,,0.00,weatherlink.com 1.10,2013-08-03 19:22:00,
2013-08-03 13:37:00,72.0,45.0,29.80,ESE,122,3.0,13.0,38,0.00,,,0.00,weatherlink.com 1.10,2013-08-03 19:37:00,
2013-08-03 13:52:00,73.8,43.0,29.80,WSW,257,2.0,13.0,33,0.00,,,0.00,weatherlink.com 1.10,2013-08-03 19:52:00,
2013-08-03 14:07:00,71.9,43.0,29.81,West,274,0.0,4.0,35,0.00,,,0.00,weatherlink.com 1.10,2013-08-03 20:07:00,
2013-08-03 14:22:00,69.9,45.0,29.81,WNW,290,1.0,5.0,41,0.00,,,0.00,weatherlink.com 1.10,2013-08-03 20:22:00,
2013-08-03 14:37:00,66.2,46.0,29.82,West,271,2.0,6.0,48,0.00,,,0.00,weatherlink.com 1.10,2013-08-03 20:37:00,
2013-08-03 14:52:00,63.8,46.0,29.83,WSW,242,2.0,5.0,53,0.00,,,0.00,weatherlink.com 1.10,2013-08-03 20:52:00,
2013-08-03 15:06:00,61.2,46.0,29.86,SSW,194,0.0,4.0,58,0.00,,,0.00,weatherlink.com 1.10,2013-08-03 21:06:00,
2013-08-03 15:22:00,56.4,49.0,29.89,WSW,252,1.0,2.0,77,0.10,,,0.10,weatherlink.com 1.10,2013-08-03 21:22:00,
2013-08-03 15:37:00,52.4,49.0,29.89,WSW,251,1.0,5.0,88,0.31,,,0.31,weatherlink.com 1.10,2013-08-03 21:37:00,
2013-08-03 15:52:00,52.3,50.0,29.90,ESE,105,2.0,8.0,90,0.36,,,0.36,weatherlink.com 1.10,2013-08-03 21:52:00,
2013-08-03 16:07:00,52.0,49.0,29.90,NNW,330,0.0,3.0,89,0.36,,,0.36,weatherlink.com 1.10,2013-08-03 22:07:00,
2013-08-03 16:22:00,52.6,51.0,29.90,NNW,330,0.0,1.0,93,0.26,,,0.37,weatherlink.com 1.10,2013-08-03 22:22:00,
2013-08-03 16:37:00,53.8,52.0,29.89,WNW,285,0.0,3.0,93,0.05,,,0.37,weatherlink.com 1.10,2013-08-03 22:37:00,
2013-08-03 16:52:00,54.9,53.0,29.89,West,278,0.0,2.0,92,0.01,,,0.37,weatherlink.com 1.10,2013-08-03 22:52:00,
2013-08-03 17:07:00,55.4,51.0,29.90,West,278,0.0,1.0,86,0.00,,,0.37,weatherlink.com 1.10,2013-08-03 23:07:00,
2013-08-03 17:22:00,55.6,53.0,29.90,West,278,0.0,0.0,91,0.00,,,0.37,weatherlink.com 1.10,2013-08-03 23:22:00,
2013-08-03 17:37:00,55.5,53.0,29.91,West,278,0.0,0.0,90,0.00,,,0.37,weatherlink.com 1.10,2013-08-03 23:37:00,
2013-08-03 17:52:00,56.1,53.0,29.91,West,278,0.0,0.0,89,0.00,,,0.37,weatherlink.com 1.10,2013-08-03 23:52:00,
2013-08-03 18:07:00,55.9,53.0,29.92,West,278,0.0,0.0,90,0.00,,,0.37,weatherlink.com 1.10,2013-08-04 00:07:00,
2013-08-03 18:22:00,56.1,54.0,29.92,West,278,0.0,0.0,92,0.00,,,0.37,weatherlink.com 1.10,2013-08-04 00:22:00,
2013-08-03 18:37:00,56.4,54.0,29.92,West,278,0.0,0.0,92,0.00,,,0.37,weatherlink.com 1.10,2013-08-04 00:37:00,
2013-08-03 18:52:00,56.3,54.0,29.92,West,278,0.0,0.0,92,0.00,,,0.37,weatherlink.com 1.10,2013-08-04 00:52:00,
2013-08-03 19:07:00,56.1,54.0,29.91,West,278,0.0,0.0,92,0.01,,,0.38,weatherlink.com 1.10,2013-08-04 01:07:00,
2013-08-03 19:22:00,55.4,53.0,29.90,West,278,0.0,0.0,92,0.01,,,0.38,weatherlink.com 1.10,2013-08-04 01:22:00,
2013-08-03 19:37:00,55.0,53.0,29.91,West,278,0.0,0.0,93,0.01,,,0.38,weatherlink.com 1.10,2013-08-04 01:37:00,
2013-08-03 20:07:00,52.8,51.0,29.91,West,277,1.0,1.0,94,0.00,,,0.38,weatherlink.com 1.10,2013-08-04 02:07:00,
2013-08-03 20:22:00,52.0,50.0,29.92,West,276,0.0,1.0,94,0.00,,,0.38,weatherlink.com 1.10,2013-08-04 02:22:00,
2013-08-03 20:37:00,51.2,50.0,29.94,West,276,0.0,0.0,94,0.00,,,0.38,weatherlink.com 1.10,2013-08-04 02:37:00,
2013-08-03 20:52:00,50.7,49.0,29.94,West,268,0.0,1.0,95,0.00,,,0.38,weatherlink.com 1.10,2013-08-04 02:52:00,
2013-08-03 21:07:00,50.3,49.0,29.95,West,267,0.0,1.0,95,0.00,,,0.38,weatherlink.com 1.10,2013-08-04 03:07:00,
2013-08-03 21:22:00,49.7,48.0,29.96,West,266,0.0,1.0,95,0.00,,,0.38,weatherlink.com 1.10,2013-08-04 03:22:00,
2013-08-03 21:37:00,49.3,48.0,29.97,West,266,0.0,0.0,95,0.00,,,0.38,weatherlink.com 1.10,2013-08-04 03:37:00,
2013-08-03 21:52:00,48.8,48.0,29.98,West,259,0.0,1.0,95,0.00,,,0.38,weatherlink.com 1.10,2013-08-04 03:52:00,
2013-08-03 22:07:00,48.7,48.0,29.98,WSW,250,0.0,1.0,96,0.00,,,0.38,weatherlink.com 1.10,2013-08-04 04:07:00,
2013-08-03 22:22:00,48.4,47.0,29.99,WSW,246,0.0,1.0,95,0.00,,,0.38,weatherlink.com 1.10,2013-08-04 04:22:00,
2013-08-03 22:37:00,47.9,47.0,30.00,WSW,246,0.0,1.0,95,0.00,,,0.38,weatherlink.com 1.10,2013-08-04 04:37:00,
2013-08-03 22:52:00,47.4,46.0,30.01,WSW,246,0.0,1.0,95,0.00,,,0.38,weatherlink.com 1.10,2013-08-04 04:52:00,
2013-08-03 23:07:00,46.8,46.0,30.01,WSW,246,0.0,1.0,95,0.00,,,0.38,weatherlink.com 1.10,2013-08-04 05:07:00,
2013-08-03 23:22:00,46.2,45.0,30.01,WSW,246,0.0,1.0,95,0.00,,,0.38,weatherlink.com 1.10,2013-08-04 05:22:00,
2013-08-03 23:37:00,45.6,45.0,30.02,WSW,246,0.0,1.0,96,0.00,,,0.38,weatherlink.com 1.10,2013-08-04 05:37:00,
2013-08-03 23:52:00,45.2,44.0,30.03,WSW,246,0.0,0.0,96,0.00,,,0.38,weatherlink.com 1.10,2013-08-04 05:52:00,